To NAV CANADA Home Page Login to a new session Search on AWWS site Feedback and Comments Disclaimer Vers la page française équivalente Tips FAQ What's new on the site To the Forecasts and Observations / NOTAM section To "File a Flight Plan" website Publications and other links Update of the User's profile FIC Telephone Numbers My Weather Data Folder Route Weather Data Regional Weather Data Local Weather Data To the Forecasts and Observations / NOTAM section
Request Generated 07/30/2015 at 01:59:09 UTC . Weather information available at that time is displayed.

METAR/TAF

CLYDE RIVER/NU    (show WxCam)

SPECI CYCY 300158Z AUTO 14008KT 9SM SCT003 SCT017 OVC085 02/01 A3009
RMK SLP190=
SPECI CYCY 300150Z AUTO 13009KT 9SM SCT003 BKN017 OVC085 02/01 A3009
RMK SLP191=
METAR CYCY 300100Z AUTO 14009KT 9SM BKN003 OVC090 02/01 A3009 RMK
SLP191=
SPECI CYCY 300042Z AUTO 13009KT 9SM BKN003 BKN017 OVC085 02/01 A3009
RMK SLP191=
SPECI CYCY 300015Z AUTO 14008KT 9SM SCT003 BKN017 OVC095 02/01 A3009
RMK SLP191=
SPECI CYCY 300006Z AUTO 14010KT 9SM BKN003 BKN017 OVC095 02/01 A3009
RMK SLP190=
METAR CYCY 300000Z AUTO 14010KT 9SM BKN005 BKN019 OVC095 02/01 A3009
RMK SLP191=

TAF CYCY 300038Z 3001/3013 14012KT P6SM SCT003 BKN015 TEMPO 3001/3003
1SM BR OVC003
FM300300 14012KT 1/2SM FG VV003
RMK FCST BASED ON AUTO OBS. NXT FCST BY 300700Z=
Your time UTC time
Weather data provided by Environment Canada and NAV CANADA